Ogallala, NE

12:41 PM MDT on June 28, 2017 (GMT -0600)
Searle

Weather History for KOGA - June, 2013

Change the Weather History Date:

Sunday, June 2, 2013

  Actual Average Record
Temperature  
Mean Temperature 57 °F -  
Max Temperature 77 °F 75 °F 95 °F (2011)
Min Temperature 38 °F 48 °F 32 °F (1969)
Degree Days  
Heating Degree Days 8    
Growing Degree Days 7 (Base 50)    
Moisture  
Dew Point 43 °F    
Average Humidity 58    
Maximum Humidity 93    
Minimum Humidity 30    
Precipitation  
Precipitation 0.00 in - - ()
Sea Level Pressure  
Sea Level Pressure 30.06 in    
Wind  
Wind Speed 6 mph (SSE)    
Max Wind Speed 20 mph    
Max Gust Speed 28 mph    
Visibility 10 miles    
Events      
Averages and records for this station are not official NWS values.
T = Trace of Precipitation, MM = Missing Value Source: NWS Daily Summary

Daily Weather History Graph

Daily Weather History Graph

Search for Another Location

Airport or City:

Trip Planner

Search our weather history database for the weather conditions in past years. The results will help you decide how hot, cold, wet, or windy it might be!

Date:

Astronomy

Jun. 02, 2013 Rise Set
Actual Time 5:16 AM MDT 8:14 PM MDT
Civil Twilight 4:43 AM MDT 8:47 PM MDT
Nautical Twilight 4:01 AM MDT 9:29 PM MDT
Astronomical Twilight 3:12 AM MDT 10:18 PM MDT
Moon 1:47 AM MDT (6/2) 2:44 PM MDT (6/2)
Length of Visible Light 16h 04m
Length of Day
14h 58m
Waning Crescent, 30% of the Moon is Illuminated
Jun 2
Waning Crescent
Jun 8
New
Jun 16
First Quarter
Jun 23
Full
Jun 29
Last Quarter

Hourly Weather History & Observations

Time (MDT) Temp. Windchill Dew Point Humidity Pressure Visibility Wind Dir Wind Speed Gust Speed Precip Events Conditions
12:15 AM 46.2 °F 44.1 °F 39.6 °F 78% 30.19 in 10.0 mi WSW 4.6 mph - N/A   Clear
12:35 AM 43.9 °F 42.3 °F 39.2 °F 84% 30.19 in 10.0 mi WSW 3.5 mph - N/A   Clear
12:55 AM 43.9 °F 41.3 °F 39.4 °F 84% 30.19 in 10.0 mi West 4.6 mph - N/A   Clear
1:15 AM 42.6 °F 39.0 °F 39.2 °F 88% 30.19 in 10.0 mi West 5.8 mph - N/A   Clear
1:35 AM 42.4 °F 40.7 °F 38.5 °F 86% 30.19 in 10.0 mi West 3.5 mph - N/A   Clear
1:55 AM 41.4 °F - 38.1 °F 88% 30.19 in 10.0 mi Calm Calm - N/A   Clear
2:15 AM 41.9 °F 40.0 °F 39.2 °F 90% 30.19 in 10.0 mi West 3.5 mph - N/A   Clear
2:35 AM 41.4 °F - 38.7 °F 90% 30.18 in 10.0 mi Calm Calm - N/A   Clear
2:55 AM 41.0 °F - 38.3 °F 90% 30.18 in 10.0 mi Calm Calm - N/A   Clear
3:15 AM 40.3 °F 38.2 °F 38.1 °F 92% 30.18 in 10.0 mi West 3.5 mph - N/A   Clear
3:35 AM 41.2 °F - 38.8 °F 91% 30.18 in 10.0 mi Calm Calm - N/A   Clear
3:55 AM 39.9 °F - 37.2 °F 90% 30.18 in 10.0 mi Calm Calm - N/A   Clear
4:15 AM 41.0 °F - 37.8 °F 88% 30.18 in 10.0 mi Calm Calm - N/A   Clear
4:35 AM 40.3 °F 38.2 °F 37.8 °F 91% 30.18 in 10.0 mi WSW 3.5 mph - N/A   Clear
4:55 AM 39.0 °F - 36.9 °F 92% 30.18 in 10.0 mi Calm Calm - N/A   Clear
5:15 AM 40.1 °F - 37.9 °F 92% 30.18 in 10.0 mi Calm Calm - N/A   Clear
5:35 AM 38.8 °F 34.6 °F 37.0 °F 93% 30.18 in 10.0 mi West 5.8 mph - N/A   Clear
5:55 AM 40.1 °F - 37.9 °F 92% 30.18 in 10.0 mi Calm Calm - N/A   Clear
6:15 AM 42.1 °F - 39.6 °F 91% 30.18 in 10.0 mi Calm Calm - N/A   Clear
6:35 AM 43.3 °F - 40.3 °F 89% 30.18 in 10.0 mi Calm Calm - N/A   Clear
6:55 AM 46.0 °F - 42.3 °F 87% 30.17 in 10.0 mi Calm Calm - N/A   Clear
7:15 AM 48.2 °F - 42.8 °F 82% 30.17 in 10.0 mi Calm Calm - N/A   Clear
7:35 AM 50.4 °F - 43.2 °F 76% 30.17 in 10.0 mi Calm Calm - N/A   Clear
7:55 AM 52.7 °F - 44.2 °F 73% 30.16 in 10.0 mi Calm Calm - N/A   Clear
8:15 AM 55.2 °F - 44.6 °F 67% 30.16 in 10.0 mi ESE 3.5 mph - N/A   Clear
8:35 AM 57.9 °F - 41.9 °F 55% 30.16 in 10.0 mi SSE 6.9 mph - N/A   Clear
8:55 AM 59.4 °F - 41.7 °F 52% 30.15 in 10.0 mi South 8.1 mph - N/A   Clear
9:15 AM 60.3 °F - 42.4 °F 52% 30.14 in 10.0 mi South 9.2 mph - N/A   Clear
9:35 AM 61.9 °F - 42.4 °F 49% 30.14 in 10.0 mi South 9.2 mph - N/A   Clear
9:55 AM 62.8 °F - 43.0 °F 48% 30.13 in 10.0 mi SSE 9.2 mph - N/A   Clear
10:15 AM 63.9 °F - 43.0 °F 47% 30.12 in 10.0 mi South 8.1 mph 16.1 mph N/A   Clear
10:35 AM 64.9 °F - 42.4 °F 44% 30.11 in 10.0 mi South 6.9 mph 17.3 mph N/A   Clear
10:55 AM 66.0 °F - 43.3 °F 44% 30.11 in 10.0 mi SSE 8.1 mph - N/A   Clear
11:15 AM 66.9 °F - 43.2 °F 42% 30.10 in 10.0 mi South 10.4 mph - N/A   Clear
11:35 AM 67.6 °F - 43.2 °F 41% 30.09 in 10.0 mi SSE 9.2 mph - N/A   Clear
11:55 AM 68.9 °F - 43.5 °F 40% 30.09 in 10.0 mi SSE 12.7 mph 18.4 mph N/A   Clear
12:15 PM 70.0 °F - 43.0 °F 38% 30.07 in 10.0 mi SSE 12.7 mph 18.4 mph N/A   Clear
12:35 PM 70.7 °F - 42.6 °F 36% 30.06 in 10.0 mi SSE 13.8 mph 17.3 mph N/A   Clear
12:55 PM 71.6 °F - 43.5 °F 36% 30.05 in 10.0 mi SSE 12.7 mph 17.3 mph N/A   Clear
1:15 PM 72.5 °F - 42.6 °F 34% 30.04 in 10.0 mi SE 10.4 mph 17.3 mph N/A   Clear
1:35 PM 73.0 °F - 42.1 °F 33% 30.04 in 10.0 mi SSE 12.7 mph 20.7 mph N/A   Clear
1:55 PM 73.4 °F - 42.6 °F 33% 30.03 in 10.0 mi SE 12.7 mph 20.7 mph N/A   Clear
2:15 PM 74.7 °F - 43.2 °F 32% 30.02 in 10.0 mi South 16.1 mph 23.0 mph N/A   Clear
2:35 PM 74.7 °F - 43.0 °F 32% 30.01 in 10.0 mi SSE 13.8 mph 18.4 mph N/A   Clear
2:55 PM 75.4 °F - 43.3 °F 32% 30.00 in 10.0 mi SSE 12.7 mph 23.0 mph N/A   Clear
3:15 PM 75.7 °F - 43.3 °F 31% 29.99 in 10.0 mi SSE 15.0 mph 21.9 mph N/A   Clear
3:35 PM 76.3 °F - 44.1 °F 32% 29.98 in 10.0 mi SSE 18.4 mph 25.3 mph N/A   Clear
3:55 PM 76.5 °F - 43.5 °F 31% 29.97 in 10.0 mi South 13.8 mph 24.2 mph N/A   Clear
4:15 PM 76.8 °F - 43.5 °F 30% 29.96 in 10.0 mi SSE 15.0 mph 23.0 mph N/A   Clear
4:35 PM 76.5 °F - 43.5 °F 31% 29.95 in 10.0 mi SSE 16.1 mph 21.9 mph N/A   Clear
4:55 PM 76.3 °F - 43.0 °F 30% 29.94 in 10.0 mi SE 19.6 mph 25.3 mph N/A   Clear
5:15 PM 76.1 °F - 43.3 °F 31% 29.93 in 10.0 mi SSE 18.4 mph 21.9 mph N/A   Clear
5:35 PM 76.1 °F - 43.5 °F 31% 29.93 in 10.0 mi SSE 17.3 mph 26.5 mph N/A   Clear
5:55 PM 75.7 °F - 43.7 °F 32% 29.92 in 10.0 mi SSE 17.3 mph 24.2 mph N/A   Clear
6:15 PM 75.2 °F - 43.3 °F 32% 29.91 in 10.0 mi SE 17.3 mph 23.0 mph N/A   Clear
6:35 PM 74.7 °F - 43.2 °F 32% 29.91 in 10.0 mi SE 19.6 mph 27.6 mph N/A   Clear
6:55 PM 74.3 °F - 43.2 °F 33% 29.90 in 10.0 mi SSE 16.1 mph 25.3 mph N/A   Clear
7:15 PM 73.0 °F - 43.7 °F 35% 29.89 in 10.0 mi SE 13.8 mph 24.2 mph N/A   Clear
7:35 PM 71.8 °F - 44.6 °F 38% 29.89 in 10.0 mi SE 16.1 mph 25.3 mph N/A   Clear
7:55 PM 70.0 °F - 45.7 °F 42% 29.89 in 10.0 mi SE 15.0 mph 24.2 mph N/A   Clear
8:15 PM 68.5 °F - 45.7 °F 44% 29.89 in 10.0 mi SE 13.8 mph 21.9 mph N/A   Clear
8:35 PM 67.1 °F - 46.6 °F 48% 29.89 in 10.0 mi ESE 9.2 mph 19.6 mph N/A   Clear
8:55 PM 65.3 °F - 47.3 °F 52% 29.89 in 10.0 mi ESE 10.4 mph - N/A   Clear
9:15 PM 64.4 °F - 47.7 °F 55% 29.90 in 10.0 mi ESE 10.4 mph - N/A   Clear
9:35 PM 63.5 °F - 47.8 °F 57% 29.91 in 10.0 mi ESE 9.2 mph - N/A   Clear
9:55 PM 63.0 °F - 47.7 °F 57% 29.91 in 10.0 mi ESE 9.2 mph - N/A   Clear
10:15 PM 62.2 °F - 47.3 °F 58% 29.91 in 10.0 mi East 9.2 mph - N/A   Clear
10:35 PM 61.5 °F - 47.3 °F 60% 29.92 in 10.0 mi ESE 8.1 mph - N/A   Clear
10:55 PM 60.6 °F - 47.1 °F 61% 29.93 in 10.0 mi ESE 8.1 mph - N/A   Clear
11:15 PM 60.3 °F - 47.1 °F 62% 29.93 in 10.0 mi ESE 6.9 mph 17.3 mph N/A   Clear
11:35 PM 59.2 °F - 47.3 °F 65% 29.93 in 10.0 mi ESE 8.1 mph - N/A   Clear
11:55 PM 58.6 °F - 46.8 °F 65% 29.91 in 10.0 mi ESE 9.2 mph - N/A   Clear